Landels-Hill Big Creek Reserve Entrance, California Weather observations

Data are for 10 minute period ending at time listed.
 Day   Time   Solar   Ave.   Ave.  Ave.  Vector  Max.   Baro.   Total    
  of    of     Rad.   Air    Rel.  Wind   Wind   Wind  Press.  Precip.   
Year   Day            Temp.  Hum.  Speed  Dir.   Gust                    
2015   (PST)  Kw/m2    F      %     mph   deg.    mph    mb.     in.     
-------------------------------------------------------------------------
 186   15:50   0.64   66.0    73    1.5    62     3.6   1012.2    0.00 
 186   16:00   0.64   66.2    73    2.0   111     4.8   1012.2    0.00 
 186   16:10   0.61   66.3    72    1.8   104     6.5   1012.2    0.00 
 186   16:20   0.58   65.9    73    3.0    66     6.6   1012.1    0.00 
 186   16:30   0.55   65.4    74    3.2   116     7.5   1012.1    0.00 
 186   16:40   0.52   65.1    75    3.3   122     7.2   1012.0    0.00 
 186   16:50   0.49   65.3    75    3.7   126     7.3   1012.0    0.00 
 186   17:00   0.45   64.8    76    3.9    91     8.0   1011.9    0.00 
 186   17:10   0.42   64.6    76    3.4   120     6.9   1011.9    0.00 
 186   17:20   0.39   64.6    77    4.1   124     7.2   1011.7    0.00 
 186   17:30   0.28   64.2    78    5.1   141    11.2   1011.7    0.00 
 186   17:40   0.04   63.9    78    4.1   164     9.1   1011.4    0.00 
 186   17:50   0.04   64.0    77    3.0   141     8.4   1011.1    0.00 
 186   18:00   0.03   63.9    77    3.0   137     8.3   1010.9    0.00 
 186   18:10   0.03   63.9    77    2.5    71     6.4   1010.9    0.00 
 186   18:20   0.03   63.8    78    3.1    16     7.7   1011.0    0.00 
 186   18:30   0.03   63.5    79    4.0    19     9.2   1011.1    0.00 
 186   18:40   0.03   63.3    80    3.4    73     7.6   1011.1    0.00 
 186   18:50   0.03   63.0    82    3.6   103     8.0   1011.0    0.00 
 186   19:00   0.02   62.8    82    3.6    76     8.4   1011.1    0.00 
 186   19:10   0.01   62.4    84    5.1   127    12.3   1011.4    0.00 
 186   19:20   0.01   62.3    84    4.0   164     8.9   1011.6    0.00 
 186   19:30   0.01   62.6    84    2.1   168     5.3   1011.7    0.00 
 186   19:40   0.00   62.7    83    2.0    80     6.1   1011.7    0.00 
 186   19:50   0.00   62.7    83    1.8    41     5.3   1011.7    0.00 
 186   20:00   0.00   62.7    83    2.1    36     5.7   1011.7    0.00 
 186   20:10   0.00   62.6    83    1.4    75     6.2   1011.8    0.00 
 186   20:20   0.00   62.6    84    1.4    90     5.0   1011.8    0.00 
 186   20:30   0.00   62.7    83    0.4   102     1.8   1011.9    0.00 
 186   20:40   0.00   62.7    83    1.9   171     5.0   1012.0    0.00 
 186   20:50   0.00   62.7    84    1.9   171     4.7   1012.0    0.00 
 186   21:00   0.00   62.6    84    2.4   163     5.5   1012.0    0.00 
 186   21:10   0.00   62.7    83    1.6   186     6.6   1012.1    0.00 
 186   21:20   0.00   62.6    84    3.3   178     6.9   1012.2    0.00 
 186   21:30   0.00   62.3    85    2.5   169     7.4   1012.3    0.00 
 186   21:40   0.00   62.2    85    4.1   160     7.7   1012.5    0.00 
 186   21:50   0.00   62.2    85    2.4   164     5.8   1012.5    0.00 
 186   22:00   0.00   62.3    85    2.0   169     4.0   1012.5    0.00 
 186   22:10   0.00   62.4    84    0.8   192     5.3   1012.7    0.00 
 186   22:20   0.00   62.3    84    2.9   173     5.3   1012.7    0.00 
 186   22:30   0.00   62.2    85    2.4   174     6.3   1012.7    0.00 
 186   22:40   0.00   62.3    84    0.7   176     4.1   1012.6    0.00 
 186   22:50   0.00   62.3    84    1.4   180     4.8   1012.7    0.00 
 186   23:00   0.00   62.1    85    2.1   164     4.7   1012.8    0.00 
 186   23:10   0.00   61.8    85    1.9   134     6.8   1012.9    0.00 
 186   23:20   0.00   61.7    86    2.6   157     4.8   1013.0    0.00 
 186   23:30   0.00   61.7    86    2.2   168     4.7   1013.1    0.00 
 186   23:40   0.00   61.7    85    2.1   157     4.1   1013.1    0.00 
 186   23:50   0.00   61.9    85    0.5   356     2.0   1013.2    0.00 
 187    0:00   0.00   62.0    85    0.3    41     1.8   1013.3    0.00 
 187    0:10   0.00   61.9    85    1.0   148     3.7   1013.4    0.00 
 187    0:20   0.00   61.7    86    1.0   192     2.6   1013.4    0.00 
 187    0:30   0.00   61.7    86    0.3   286     1.9   1013.3    0.00 
 187    0:40   0.00   61.7    86    0.2   230     1.3   1013.3    0.00 
 187    0:50   0.00   61.7    86    1.0   174     3.1   1013.3    0.00 
 187    1:00   0.00   61.6    86    1.9   172     4.5   1013.2    0.00 
 187    1:10   0.00   61.4    87    1.0   178     4.9   1013.1    0.00 
 187    1:20   0.00   61.2    88    1.6   184     3.6   1013.0    0.00 
 187    1:30   0.00   61.2    88    0.9   186     2.1   1012.9    0.00 
 187    1:40   0.00   61.0    88    2.0   187     3.8   1013.0    0.00 
 187    1:50   0.00   60.8    89    1.6   184     4.7   1013.0    0.00 
 187    2:00   0.00   60.9    89    1.2   205     4.6   1013.2    0.00 
 187    2:10   0.00   60.8    89    1.5   189     3.2   1013.2    0.00 
 187    2:20   0.00   60.7    90    1.5   183     3.4   1013.2    0.00 
 187    2:30   0.00   60.5    91    1.2   182     5.0   1013.2    0.00 
 187    2:40   0.00   60.3    92    1.1   186     4.0   1013.3    0.00 
 187    2:50   0.00   60.2    93    1.6   184     5.6   1013.5    0.00 
 187    3:00   0.00   60.0    93    1.2   179     4.2   1013.5    0.00 
 187    3:10   0.00   60.2    94    0.2   212     1.8   1013.6    0.00 
 187    3:20   0.00   60.0    94    1.1   198     3.1   1013.7    0.00 
 187    3:30   0.00   59.9    94    0.8   185     2.6   1013.8    0.00 
 187    3:40   0.00   59.8    94    0.3   188     2.3   1013.8    0.01 
 187    3:50   0.00   59.8    94    0.9   215     3.1   1013.7    0.00 
 187    4:00   0.00   59.6    95    0.7   211     2.6   1013.7    0.00 
 187    4:10   0.00   59.5    95    0.6   171     2.2   1013.7    0.00 
 187    4:20   0.00   59.5    95    0.6   194     3.7   1013.7    0.00 
 187    4:30   0.00   59.4    95    1.4   178     3.5   1013.8    0.00 
 187    4:40   0.00   59.2    95    0.7   143     2.5   1014.0    0.00 
 187    4:50   0.00   59.2    95    1.1   171     3.1   1014.1    0.00 
 187    5:00   0.00   59.3    95    0.9   185     2.9   1014.2    0.01 
 187    5:10   0.00   59.2    95    0.4   175     2.5   1014.3    0.00 
 187    5:20   0.01   59.3    95    0.3    94     2.5   1014.4    0.00 
 187    5:30   0.01   59.2    95    0.2   167     1.2   1014.4    0.00 
 187    5:40   0.01   59.5    95    0.0     0     0.0   1014.5    0.00 
 187    5:50   0.02   59.6    95    0.0   164     0.6   1014.6    0.00 
 187    6:00   0.03   59.4    95    0.1    80     1.5   1014.7    0.00 
 187    6:10   0.03   59.6    95    0.0   155     0.6   1014.6    0.00 
 187    6:20   0.04   59.4    95    1.3   169     4.6   1014.5    0.01 
 187    6:30   0.05   59.6    95    0.2   204     1.7   1014.5    0.00 
 187    6:40   0.06   59.4    94    0.9   107     4.5   1014.6    0.00 
 187    6:50   0.07   59.2    94    1.8    62     4.0   1014.7    0.00 
 187    7:00   0.08   59.4    93    1.1    56     3.6   1014.7    0.00 
 187    7:10   0.09   59.3    93    1.5    71     3.1   1014.7    0.00 
 187    7:20   0.09   59.2    92    3.0    62     5.6   1014.8    0.00 
 187    7:30   0.12   59.2    93    1.3    28     3.8   1014.8    0.00 
 187    7:40   0.15   59.8    92    1.3    66     3.5   1014.8    0.00 
 187    7:50   0.14   60.2    90    1.9   147     4.8   1014.8    0.00 
 187    8:00   0.15   60.4    88    2.2   105     9.3   1014.9    0.00 
 187    8:10   0.19   60.6    88    1.8    83     4.8   1015.0    0.00 
 187    8:20   0.22   61.0    86    2.0    87     5.2   1015.0    0.00 
 187    8:30   0.25   61.4    84    2.9   110     6.9   1015.0    0.00 
 187    8:40   0.22   61.6    83    3.9   163     9.6   1015.2    0.00 
 187    8:50   0.24   61.5    83    3.1   165     8.0   1015.3    0.00 
 187    9:00   0.22   61.6    83    2.2   150     6.2   1015.2    0.00 
 187    9:10   0.24   61.8    83    2.4   164     6.6   1015.1    0.00 
 187    9:20   0.25   61.7    83    2.6   187     5.4   1015.0    0.00 
 187    9:30   0.27   61.6    83    3.0   147     5.9   1015.1    0.00 
 187    9:40   0.27   61.6    82    2.1   143     4.8   1015.1    0.00 
 187    9:50   0.29   61.9    82    1.5   122     3.4   1015.1    0.00 
 187   10:00   0.32   62.0    82    2.2   116     3.8   1015.1    0.00 
 187   10:10   0.34   61.7    83    2.1   102     6.7   1015.1    0.00 
 187   10:20   0.35   62.5    81    2.1   175     5.6   1015.1    0.00 
 187   10:30   0.38   62.7    81    3.2   182     6.6   1015.1    0.00 
 187   10:40   0.40   63.1    82    4.0   181     9.0   1015.1    0.00 
 187   10:50   0.43   63.2    82    2.0   186     6.0   1015.2    0.00 
 187   11:00   0.43   62.7    82    5.0   168     9.3   1015.3    0.00 
 187   11:10   0.40   62.4    84    4.3   184     9.5   1015.3    0.00 
 187   11:20   0.35   63.2    81    3.9   186     7.2   1015.3    0.00 
 187   11:30   0.27   62.8    82    2.8   181     6.8   1015.1    0.00 
 187   11:40   0.27   62.9    82    1.7    34     8.8   1015.1    0.00 
 187   11:50   0.29   62.7    83    1.7   308     5.2   1015.0    0.00 
 187   12:00   0.33   62.9    83    3.4   185    10.1   1014.9    0.00 
 187   12:10   0.31   61.5    86    4.4   174    10.5   1014.8    0.00 
 187   12:20   0.32   61.8    86    3.6   176     7.2   1014.8    0.00 
 187   12:30   0.35   62.0    84    4.7   149    11.8   1014.8    0.00 
 187   12:40   0.41   61.9    84    4.7   175    11.5   1014.7    0.00 
 187   12:50   0.43   62.5    82    3.9   162    10.0   1014.7    0.00 
 187   13:00   0.41   63.0    81    2.1   168     8.6   1014.6    0.00 
 187   13:10   0.47   63.8    78    3.1     8     8.3   1014.5    0.00 
 187   13:20   0.52   63.2    78    5.2   167    10.5   1014.4    0.00 
 187   13:30   0.41   63.1    79    5.6   173    10.9   1014.2    0.00 
 187   13:40   0.30   63.0    79    2.9    16     8.7   1014.2    0.00 
 187   13:50   0.55   62.7    80    5.6   136    11.2   1014.1    0.00 
 187   14:00   0.61   63.2    79    5.4   167    11.3   1014.1    0.00 
 187   14:10   0.95   63.8    77    6.5   170    10.8   1014.0    0.00 
 187   14:20   0.65   63.5    77    3.2   150     8.8   1014.1    0.00 
 187   14:30   0.73   63.5    78    3.1   180     7.9   1014.1    0.00 
 187   14:40   0.76   65.1    74    1.8   213     5.6   1014.0    0.00 
 187   14:50   0.89   66.3    71    1.6   193     5.1   1013.9    0.00 
 187   15:00   0.72   66.9    70    1.8   247     5.4   1013.7    0.00 
 187   15:10   0.70   65.7    73    3.1   261     7.8   1013.5    0.00 
 187   15:20   0.73   64.6    76    3.1   272     7.3   1013.2    0.00 
 187   15:30   0.70   65.1    75    3.2   283     7.6   1013.1    0.00 
 187   15:40   0.67   66.1    74    1.7   290     6.8   1013.0    0.00 

Return to Big Creek Reserve Entrance graphs page.


Western Regional Climate Center,wrcc@dri.edu